world map with CFR marked

CFR - Airport

This information may not be accurate or current and is not valid for navigation or flight planning. No warranty of fitness for any purpose is made or implied.

flag of Basse-Normandie (Lower Normandy)flag of France

Donate via PayPal

Additional information is available on the NEW Great Circle Mapper

Location
City:  Caen, Basse-Normandie (Lower Normandy), France
Name:Caen-Carpiquet Airport
ICAO / IATA:LFRK / CFR

Details
Type:Airport (Aerodrome, Airfield)
Use:Public/Civil
Latitude:49°10'24"N (49.173281)
Longitude:0°27'00"W (-0.449874)
Elevation:256 ft (78 m)
Runways:4
Longest:6234 × 148 ft (1900 × 45 m)

Time
Timezone:UTC+1 (DST+4)
Local Time:

Weather
METAR:LFRK  041400Z AUTO 18015KT 9999 OVC013 06/03 Q1020 TEMPO 4000 RA BKN004 BECMG 19020G30KT

Related Locations
Nearby:
Farthest:CHT: 12015 mi / 19337 km
Waitangi [Tuuta], CIT, NZ

Find:

   beyond  
but within

Other Information
Maps:
Links:
Sources:

  


 


Great Circle Mapper   Great Circle Mapper
Great Circle Mapper FAQ   Great Circle Mapper FAQ
  Karl's Home Page
KLSē   KLSē Home
   GC on Facebook
Airlines of the World   Airlines of the World
Donate via PayPal


Copyright © 2004-2019, Karl L. Swartz. All rights reserved.
All trademarks mentioned herein belong to their respective owners.

Please see credits for attribution and copyright information.

Karl Swartz <karl@kls2.com>
  Powered by FreeBSD
Valid HTML 4.01!
Labeled with ICRA
hCard Microformat
Geo Microformat